Terminal Aerodrome Forecast
Issued by NWS

Home | Current Version | Previous Version | Text Only | Print | Product List | Glossary On
Versions: 1 2 3 4 5 6 7 8 9 10 11 12 13 14
000
FTUS46 KMTR 301100
TAFMRY
TAF
KMRY 301122Z 3012/3112 09003KT 4SM BR OVC003
      TEMPO 3012/3016 1/4SM FG VV001
     FM301700 29005KT P6SM FEW010
     FM310200 12003KT P6SM BKN012=

USA.gov is the U.S. government's official web portal to all federal, state and local government web resources and services.